createdAt,value
2022-11-29T00:00:15.515Z,100477.77
2022-11-29T00:04:43.775Z,100477.95
2022-11-29T00:08:52.257Z,100482.02
2022-11-29T00:12:59.879Z,100476.63
2022-11-29T00:17:07.833Z,100476.23
2022-11-29T00:21:15.267Z,100482.70
2022-11-29T00:25:23.237Z,100479.56
2022-11-29T00:29:32.291Z,100479.10
2022-11-29T00:33:39.961Z,100479.57
2022-11-29T00:37:47.461Z,100476.74
2022-11-29T00:41:55.791Z,100476.44
2022-11-29T00:46:03.793Z,100480.00
2022-11-29T00:50:12.922Z,100478.45
2022-11-29T00:54:20.626Z,100475.88
2022-11-29T00:58:28.337Z,100473.36
2022-11-29T01:02:36.050Z,100472.24
2022-11-29T01:06:44.325Z,100471.55
2022-11-29T01:10:52.021Z,100476.14
2022-11-29T01:15:00.879Z,100477.14
2022-11-29T01:19:11.471Z,100475.98
2022-11-29T01:23:18.870Z,100475.58
2022-11-29T01:27:26.329Z,100472.98
2022-11-29T01:31:36.649Z,100471.55
2022-11-29T01:35:50.218Z,100469.43
2022-11-29T01:39:57.851Z,100469.65
2022-11-29T01:44:08.261Z,100471.77
2022-11-29T01:48:17.618Z,100474.80
2022-11-29T01:52:27.853Z,100473.94
2022-11-29T01:56:36.587Z,100476.71
2022-11-29T02:00:43.885Z,100470.56
2022-11-29T02:04:52.827Z,100469.65
2022-11-29T02:09:01.512Z,100470.02
2022-11-29T02:13:14.816Z,100471.29
2022-11-29T02:17:29.865Z,100471.66
2022-11-29T02:21:44.061Z,100475.56
2022-11-29T02:26:03.941Z,100472.05
2022-11-29T02:30:35.867Z,100479.15
2022-11-29T02:34:55.074Z,100475.66
2022-11-29T02:39:35.726Z,100477.30
2022-11-29T02:44:10.551Z,100478.07
2022-11-29T02:48:34.690Z,100482.22
2022-11-29T02:52:49.877Z,100493.58
2022-11-29T02:57:00.476Z,100496.19
2022-11-29T03:01:16.848Z,100496.15
2022-11-29T03:05:30.465Z,100496.08
2022-11-29T03:09:44.187Z,100498.27
2022-11-29T03:13:58.388Z,100503.63
2022-11-29T03:18:17.197Z,100501.18
2022-11-29T03:22:36.550Z,100505.80
2022-11-29T03:26:47.966Z,100506.58
2022-11-29T03:31:00.131Z,100506.84
2022-11-29T03:35:12.012Z,100511.27
2022-11-29T03:39:26.557Z,100515.17
2022-11-29T03:43:41.366Z,100514.41
2022-11-29T03:47:58.033Z,100512.08
2022-11-29T03:52:10.037Z,100511.18
2022-11-29T03:56:32.284Z,100515.75
2022-11-29T04:00:57.525Z,100514.20
2022-11-29T04:05:32.974Z,100517.73
2022-11-29T04:09:57.954Z,100516.23
2022-11-29T04:14:35.129Z,100517.44
2022-11-29T04:23:55.772Z,100522.02
2022-11-29T04:28:16.827Z,100529.27
2022-11-29T04:32:40.471Z,100533.92
2022-11-29T04:37:02.593Z,100533.85
2022-11-29T04:41:21.850Z,100537.16
2022-11-29T04:45:58.900Z,100539.54
2022-11-29T04:50:18.598Z,100543.64
2022-11-29T04:54:32.501Z,100543.81
2022-11-29T04:58:42.798Z,100543.45
2022-11-29T05:02:55.953Z,100548.37
2022-11-29T05:07:07.637Z,100551.56
2022-11-29T05:11:26.472Z,100552.60
2022-11-29T05:15:56.632Z,100550.14
2022-11-29T05:20:23.965Z,100555.14
2022-11-29T05:24:43.176Z,100557.19
2022-11-29T05:28:56.094Z,100557.67
2022-11-29T05:33:11.787Z,100563.06
2022-11-29T05:37:28.401Z,100565.34
2022-11-29T05:41:47.757Z,100566.20
2022-11-29T05:46:01.538Z,100575.08
2022-11-29T05:50:16.306Z,100572.00
2022-11-29T05:54:29.858Z,100578.42
2022-11-29T05:58:48.005Z,100580.27
2022-11-29T06:03:00.815Z,100583.38
2022-11-29T06:07:13.011Z,100586.86
2022-11-29T06:11:25.228Z,100589.94
2022-11-29T06:15:48.843Z,100594.34
2022-11-29T06:20:09.294Z,100595.33
2022-11-29T06:24:27.344Z,100600.88
2022-11-29T06:28:43.764Z,100606.15
2022-11-29T06:32:56.498Z,100608.79
2022-11-29T06:37:10.173Z,100612.66
2022-11-29T06:41:22.519Z,100615.06
2022-11-29T06:45:31.231Z,100620.05
2022-11-29T06:49:43.704Z,100618.41
2022-11-29T06:53:55.490Z,100625.63
2022-11-29T06:58:11.397Z,100627.05
2022-11-29T07:02:33.681Z,100634.08
2022-11-29T07:06:43.122Z,100631.56
2022-11-29T07:10:54.244Z,100630.45
2022-11-29T07:15:03.198Z,100628.95
2022-11-29T07:19:16.932Z,100632.21
2022-11-29T07:23:32.686Z,100636.04
2022-11-29T07:27:54.899Z,100638.34
2022-11-29T07:32:09.301Z,100637.16
2022-11-29T07:36:20.211Z,100635.93
2022-11-29T07:40:37.334Z,100638.08
2022-11-29T07:44:52.325Z,100642.70
2022-11-29T07:49:00.492Z,100647.17
2022-11-29T07:53:08.432Z,100647.95
2022-11-29T07:57:16.151Z,100652.64
2022-11-29T08:01:23.548Z,100658.48
2022-11-29T08:05:31.309Z,100657.80
2022-11-29T08:09:38.998Z,100657.75
2022-11-29T08:13:46.866Z,100657.91
2022-11-29T08:17:55.607Z,100663.10
2022-11-29T08:22:03.955Z,100663.51
2022-11-29T08:26:12.845Z,100666.42
2022-11-29T08:30:22.517Z,100670.77
2022-11-29T08:34:29.999Z,100665.65
2022-11-29T08:38:37.574Z,100666.88
2022-11-29T08:42:45.553Z,100670.68
2022-11-29T08:47:10.782Z,100673.92
2022-11-29T08:51:18.667Z,100680.59
2022-11-29T08:55:27.789Z,100679.23
2022-11-29T08:59:35.338Z,100683.19
2022-11-29T09:04:02.916Z,100686.60
2022-11-29T09:08:10.771Z,100688.65
2022-11-29T09:12:18.324Z,100689.88
2022-11-29T09:16:27.882Z,100697.42
2022-11-29T09:20:35.418Z,100693.14
2022-11-29T09:24:43.127Z,100693.77
2022-11-29T09:28:52.483Z,100693.71
2022-11-29T09:33:00.720Z,100693.10
2022-11-29T09:37:09.439Z,100688.53
2022-11-29T09:41:41.968Z,100692.88
2022-11-29T09:45:55.275Z,100691.33
2022-11-29T09:50:21.726Z,100691.27
2022-11-29T09:54:39.487Z,100687.39
2022-11-29T09:58:51.458Z,100688.48
2022-11-29T10:03:03.066Z,100690.66
2022-11-29T10:07:18.185Z,100687.88
2022-11-29T10:11:31.799Z,100688.20
2022-11-29T10:15:42.735Z,100687.80
2022-11-29T10:19:54.286Z,100689.35
2022-11-29T10:24:05.777Z,100691.36
2022-11-29T10:28:17.676Z,100688.36
2022-11-29T10:32:27.929Z,100690.48
2022-11-29T10:36:41.314Z,100691.00
2022-11-29T10:40:51.271Z,100692.05
2022-11-29T10:44:59.696Z,100689.59
2022-11-29T10:49:14.305Z,100688.05
2022-11-29T10:53:24.585Z,100684.10
2022-11-29T10:57:32.781Z,100682.12
2022-11-29T11:01:42.819Z,100682.69
2022-11-29T11:06:02.563Z,100678.13
2022-11-29T11:10:22.837Z,100678.84
2022-11-29T11:14:33.099Z,100676.86
2022-11-29T11:18:41.180Z,100675.10
2022-11-29T11:23:00.646Z,100674.04
2022-11-29T11:27:08.041Z,100682.58
2022-11-29T11:31:16.307Z,100684.43
2022-11-29T11:35:26.986Z,100681.73
2022-11-29T11:39:34.772Z,100683.22
2022-11-29T11:43:42.692Z,100680.60
2022-11-29T11:47:52.098Z,100682.73
2022-11-29T11:51:59.957Z,100685.69
2022-11-29T11:56:10.107Z,100687.78
2022-11-29T12:05:17.558Z,100696.86
2022-11-29T12:09:32.728Z,100701.74
2022-11-29T12:13:44.898Z,100701.44
2022-11-29T12:17:54.572Z,100700.29
2022-11-29T12:22:08.305Z,100702.52
2022-11-29T12:26:48.898Z,100702.65
2022-11-29T12:30:56.721Z,100701.13
2022-11-29T12:35:18.989Z,100702.27
2022-11-29T12:39:39.260Z,100699.08
2022-11-29T12:43:55.440Z,100701.23
2022-11-29T12:48:10.523Z,100699.55
2022-11-29T12:52:25.643Z,100705.54
2022-11-29T12:56:38.494Z,100709.23
2022-11-29T13:00:51.770Z,100709.69
2022-11-29T13:05:03.687Z,100709.45
2022-11-29T13:09:35.437Z,100715.92
2022-11-29T13:13:44.925Z,100718.68
2022-11-29T13:17:59.150Z,100722.45
2022-11-29T13:22:11.048Z,100726.45
2022-11-29T13:26:19.132Z,100723.02
2022-11-29T13:30:26.889Z,100724.95
2022-11-29T13:34:37.218Z,100728.67
2022-11-29T13:38:47.389Z,100729.23
2022-11-29T13:42:59.982Z,100734.23
2022-11-29T13:47:12.516Z,100737.47
2022-11-29T13:51:32.929Z,100741.09
2022-11-29T13:55:48.131Z,100744.52
2022-11-29T13:59:55.771Z,100749.73
2022-11-29T14:04:12.479Z,100757.63
2022-11-29T14:08:54.485Z,100763.63
2022-11-29T14:13:02.141Z,100764.17
2022-11-29T14:17:48.728Z,100770.90
2022-11-29T14:22:31.981Z,100774.72
2022-11-29T14:26:39.296Z,100777.16
2022-11-29T14:30:55.440Z,100778.90
2022-11-29T14:35:07.755Z,100782.59
2022-11-29T14:39:31.867Z,100784.10
2022-11-29T14:43:41.794Z,100790.04
2022-11-29T14:47:52.048Z,100794.24
2022-11-29T14:52:33.628Z,100796.52
2022-11-29T14:56:44.533Z,100800.14
2022-11-29T15:01:10.909Z,100801.20
2022-11-29T15:05:21.650Z,100802.27
2022-11-29T15:09:31.338Z,100800.85
2022-11-29T15:13:47.766Z,100805.91
2022-11-29T15:18:01.160Z,100810.73
2022-11-29T15:22:15.803Z,100813.98
2022-11-29T15:26:25.005Z,100816.27
2022-11-29T15:30:35.715Z,100816.40
2022-11-29T15:34:50.829Z,100817.14
2022-11-29T15:39:01.896Z,100816.96
2022-11-29T15:43:18.388Z,100819.06
2022-11-29T15:47:28.086Z,100818.94
2022-11-29T15:51:38.772Z,100824.01
2022-11-29T15:55:49.860Z,100828.91
2022-11-29T15:59:59.936Z,100833.38
2022-11-29T16:04:08.790Z,100835.52
2022-11-29T16:08:19.554Z,100835.58
2022-11-29T16:12:27.484Z,100837.98
2022-11-29T16:16:35.731Z,100836.29
2022-11-29T16:20:45.615Z,100839.42
2022-11-29T16:25:06.305Z,100842.64
2022-11-29T16:29:24.772Z,100842.14
2022-11-29T16:33:32.798Z,100840.45
2022-11-29T16:37:43.961Z,100844.65
2022-11-29T16:42:05.930Z,100846.54
2022-11-29T16:46:34.853Z,100851.71
2022-11-29T16:50:42.324Z,100852.95
2022-11-29T16:54:50.569Z,100859.28
2022-11-29T16:59:25.255Z,100866.45
2022-11-29T17:03:30.251Z,100872.82
2022-11-29T17:07:39.558Z,100877.77
2022-11-29T17:11:47.632Z,100874.13
2022-11-29T17:15:55.319Z,100876.31
2022-11-29T17:20:02.670Z,100875.56
2022-11-29T17:24:13.563Z,100877.92
2022-11-29T17:28:20.877Z,100878.66
2022-11-29T17:32:28.387Z,100879.91
2022-11-29T17:36:36.264Z,100883.94
2022-11-29T17:40:45.078Z,100885.88
2022-11-29T17:44:54.609Z,100893.66
2022-11-29T17:49:04.111Z,100900.02
2022-11-29T17:53:11.739Z,100901.66
2022-11-29T17:57:20.145Z,100902.23
2022-11-29T18:01:47.477Z,100902.48
2022-11-29T18:06:04.551Z,100905.27
2022-11-29T18:10:13.134Z,100911.32
2022-11-29T18:14:23.053Z,100916.46
2022-11-29T18:18:30.441Z,100917.02
2022-11-29T18:22:38.108Z,100917.96
2022-11-29T18:26:46.058Z,100918.20
2022-11-29T18:30:54.931Z,100925.99
2022-11-29T18:35:05.004Z,100927.45
2022-11-29T18:39:15.173Z,100925.98
2022-11-29T18:43:22.597Z,100925.92
2022-11-29T18:47:33.128Z,100929.16
2022-11-29T18:51:42.477Z,100937.48
2022-11-29T18:55:50.372Z,100938.04
2022-11-29T18:59:57.787Z,100938.70
2022-11-29T19:04:05.402Z,100940.92
2022-11-29T19:08:13.311Z,100943.73
2022-11-29T19:12:21.078Z,100943.37
2022-11-29T19:16:31.175Z,100949.20
2022-11-29T19:20:38.896Z,100952.64
2022-11-29T19:24:47.210Z,100956.40
2022-11-29T19:28:55.595Z,100960.03
2022-11-29T19:33:03.255Z,100967.14
2022-11-29T19:37:11.209Z,100968.10
2022-11-29T19:41:20.616Z,100969.69
2022-11-29T19:45:28.366Z,100976.48
2022-11-29T19:49:46.134Z,100974.55
2022-11-29T19:53:56.996Z,100980.88
2022-11-29T19:58:04.582Z,100982.52
2022-11-29T20:02:12.758Z,100986.81
2022-11-29T20:06:21.031Z,100982.69
2022-11-29T20:10:29.039Z,100980.67
2022-11-29T20:14:36.875Z,100977.56
2022-11-29T20:18:50.623Z,100977.77
2022-11-29T20:22:58.842Z,100980.90
2022-11-29T20:27:06.884Z,100985.23
2022-11-29T20:31:16.825Z,100985.88
2022-11-29T20:35:25.473Z,100984.27
2022-11-29T20:39:42.095Z,100980.98
2022-11-29T20:43:54.923Z,100982.63
2022-11-29T20:48:09.741Z,100984.77
2022-11-29T20:52:32.200Z,100992.78
2022-11-29T20:56:39.655Z,100999.35
2022-11-29T21:00:47.384Z,100999.80
2022-11-29T21:04:56.492Z,101007.63
2022-11-29T21:09:04.185Z,101008.41
2022-11-29T21:13:14.228Z,101011.27
2022-11-29T21:17:24.830Z,101016.44
2022-11-29T21:21:39.388Z,101015.30
2022-11-29T21:25:54.550Z,101022.58
2022-11-29T21:30:05.572Z,101024.57
2022-11-29T21:34:13.288Z,101027.80
2022-11-29T21:38:23.661Z,101035.71
2022-11-29T21:42:31.300Z,101041.70
2022-11-29T21:46:39.368Z,101043.66
2022-11-29T21:50:52.109Z,101043.52
2022-11-29T21:54:59.964Z,101042.84
2022-11-29T21:59:07.449Z,101040.96
2022-11-29T22:03:15.376Z,101038.73
2022-11-29T22:07:23.010Z,101038.23
2022-11-29T22:11:34.548Z,101042.10
2022-11-29T22:15:42.568Z,101043.52
2022-11-29T22:19:50.805Z,101042.98
2022-11-29T22:23:58.342Z,101041.77
2022-11-29T22:28:05.932Z,101041.27
2022-11-29T22:32:13.701Z,101043.20
2022-11-29T22:36:21.626Z,101043.58
2022-11-29T22:40:29.401Z,101047.08
2022-11-29T22:44:37.516Z,101053.72
2022-11-29T22:48:45.595Z,101050.39
2022-11-29T22:52:52.724Z,101049.86
2022-11-29T22:57:00.470Z,101055.47
2022-11-29T23:01:12.310Z,101054.77
2022-11-29T23:05:21.271Z,101057.73
2022-11-29T23:09:28.400Z,101057.39
2022-11-29T23:13:37.401Z,101062.29
2022-11-29T23:17:45.453Z,101061.59
2022-11-29T23:21:53.281Z,101058.62
2022-11-29T23:26:01.259Z,101061.95
2022-11-29T23:30:11.797Z,101062.13
2022-11-29T23:34:19.935Z,101059.13
2022-11-29T23:38:27.897Z,101058.95
2022-11-29T23:42:35.568Z,101060.17
2022-11-29T23:46:42.928Z,101062.27
2022-11-29T23:50:51.088Z,101061.92
2022-11-29T23:54:58.729Z,101060.70
2022-11-29T23:59:07.136Z,101058.96
